createdAt,value
2019-03-29T00:01:47.702Z,75.68
2019-03-29T00:04:20.094Z,75.48
2019-03-29T00:06:51.033Z,74.81
2019-03-29T00:09:22.465Z,75.13
2019-03-29T00:11:53.466Z,75.43
2019-03-29T00:14:25.590Z,75.07
2019-03-29T00:16:56.550Z,75.55
2019-03-29T00:19:27.906Z,75.52
2019-03-29T00:21:59.046Z,75.44
2019-03-29T00:24:30.375Z,75.24
2019-03-29T00:27:01.216Z,76.05
2019-03-29T00:29:32.238Z,75.65
2019-03-29T00:32:02.979Z,75.88
2019-03-29T00:34:34.453Z,75.40
2019-03-29T00:37:05.789Z,75.16
2019-03-29T00:39:36.707Z,75.19
2019-03-29T00:42:08.652Z,75.10
2019-03-29T00:44:40.770Z,75.20
2019-03-29T00:47:11.709Z,75.70
2019-03-29T00:49:42.858Z,75.98
2019-03-29T00:52:14.189Z,75.43
2019-03-29T00:54:46.981Z,75.34
2019-03-29T00:57:18.051Z,75.49
2019-03-29T00:59:49.194Z,75.08
2019-03-29T01:02:20.331Z,75.70
2019-03-29T01:04:51.795Z,75.85
2019-03-29T01:07:22.875Z,75.70
2019-03-29T01:09:54.223Z,75.43
2019-03-29T01:12:25.039Z,75.19
2019-03-29T01:14:56.104Z,75.62
2019-03-29T01:17:27.356Z,75.56
2019-03-29T01:19:58.100Z,75.27
2019-03-29T01:22:28.862Z,75.62
2019-03-29T01:24:59.891Z,75.34
2019-03-29T01:27:30.906Z,76.48
2019-03-29T01:30:01.813Z,75.24
2019-03-29T01:32:33.054Z,74.85
2019-03-29T01:35:04.934Z,76.93
2019-03-29T01:37:36.083Z,79.35
2019-03-29T01:40:09.174Z,78.63
2019-03-29T01:42:40.659Z,76.25
2019-03-29T01:45:12.169Z,76.24
2019-03-29T01:47:42.927Z,75.58
2019-03-29T01:50:14.581Z,75.02
2019-03-29T01:52:45.995Z,75.11
2019-03-29T01:55:17.440Z,74.98
2019-03-29T01:57:48.201Z,75.07
2019-03-29T02:00:34.319Z,74.42
2019-03-29T02:03:06.526Z,75.23
2019-03-29T02:05:37.212Z,74.72
2019-03-29T02:08:07.952Z,75.32
2019-03-29T02:10:38.763Z,75.09
2019-03-29T02:13:09.997Z,75.19
2019-03-29T02:15:40.711Z,75.05
2019-03-29T02:18:11.420Z,76.21
2019-03-29T02:20:42.230Z,75.23
2019-03-29T02:23:12.970Z,75.24
2019-03-29T02:25:43.879Z,75.98
2019-03-29T02:28:14.913Z,75.59
2019-03-29T02:30:45.702Z,75.33
2019-03-29T02:33:16.562Z,75.49
2019-03-29T02:35:47.395Z,75.22
2019-03-29T02:38:18.633Z,75.21
2019-03-29T02:40:50.994Z,75.19
2019-03-29T02:43:22.490Z,74.90
2019-03-29T02:45:53.408Z,75.21
2019-03-29T02:48:24.593Z,75.84
2019-03-29T02:50:55.553Z,75.65
2019-03-29T02:53:26.539Z,76.15
2019-03-29T02:55:59.174Z,75.77
2019-03-29T02:58:30.460Z,75.23
2019-03-29T03:01:02.203Z,75.30
2019-03-29T03:03:32.972Z,75.40
2019-03-29T03:06:06.559Z,75.61
2019-03-29T03:08:37.596Z,75.86
2019-03-29T03:11:09.100Z,75.72
2019-03-29T03:13:39.948Z,74.96
2019-03-29T03:16:11.215Z,75.14
2019-03-29T03:18:42.080Z,74.94
2019-03-29T03:21:13.711Z,75.35
2019-03-29T03:23:44.467Z,75.73
2019-03-29T03:26:15.495Z,74.69
2019-03-29T03:28:46.232Z,75.66
2019-03-29T03:31:16.978Z,75.07
2019-03-29T03:33:47.974Z,75.12
2019-03-29T03:36:19.252Z,75.54
2019-03-29T03:38:50.160Z,75.70
2019-03-29T03:41:20.965Z,75.82
2019-03-29T03:43:51.775Z,75.09
2019-03-29T03:46:22.776Z,75.19
2019-03-29T03:48:53.544Z,75.43
2019-03-29T03:51:24.795Z,75.68
2019-03-29T03:53:56.314Z,75.68
2019-03-29T03:56:29.739Z,75.25
2019-03-29T03:59:02.182Z,74.92
2019-03-29T04:01:33.101Z,75.47
2019-03-29T04:04:04.049Z,75.20
2019-03-29T04:06:35.374Z,75.58
2019-03-29T04:09:07.791Z,75.21
2019-03-29T04:11:38.564Z,75.84
2019-03-29T04:14:09.335Z,79.90
2019-03-29T04:16:40.875Z,76.78
2019-03-29T04:19:11.584Z,75.38
2019-03-29T04:21:42.749Z,75.70
2019-03-29T04:24:13.443Z,75.39
2019-03-29T04:26:44.251Z,75.48
2019-03-29T04:29:15.771Z,75.16
2019-03-29T04:31:46.526Z,75.36
2019-03-29T04:34:17.270Z,75.60
2019-03-29T04:36:48.155Z,74.91
2019-03-29T04:39:18.890Z,74.95
2019-03-29T04:41:49.994Z,75.68
2019-03-29T04:44:20.819Z,74.66
2019-03-29T04:46:51.820Z,75.26
2019-03-29T04:49:22.945Z,74.82
2019-03-29T04:51:53.931Z,73.69
2019-03-29T04:54:24.849Z,74.45
2019-03-29T04:56:56.136Z,74.70
2019-03-29T04:59:27.187Z,73.97
2019-03-29T05:01:58.545Z,75.53
2019-03-29T05:04:29.370Z,74.11
2019-03-29T05:07:00.137Z,73.77
2019-03-29T05:09:30.906Z,73.04
2019-03-29T05:12:02.300Z,73.76
2019-03-29T05:14:33.096Z,74.28
2019-03-29T05:17:04.046Z,74.17
2019-03-29T05:19:35.094Z,74.07
2019-03-29T05:22:05.906Z,73.55
2019-03-29T05:24:36.711Z,73.99
2019-03-29T05:27:07.427Z,73.76
2019-03-29T05:29:38.168Z,73.47
2019-03-29T05:32:09.296Z,73.70
2019-03-29T05:34:40.137Z,73.76
2019-03-29T05:37:10.847Z,73.47
2019-03-29T05:39:41.684Z,73.64
2019-03-29T05:42:12.378Z,73.54
2019-03-29T05:44:43.090Z,72.86
2019-03-29T05:47:13.986Z,73.50
2019-03-29T05:49:45.029Z,73.35
2019-03-29T05:52:16.078Z,73.35
2019-03-29T05:54:47.194Z,73.16
2019-03-29T05:57:17.933Z,73.41
2019-03-29T05:59:49.153Z,72.95
2019-03-29T06:02:19.954Z,72.98
2019-03-29T06:04:50.868Z,72.75
2019-03-29T06:07:22.116Z,72.99
2019-03-29T06:09:52.872Z,73.39
2019-03-29T06:12:23.900Z,72.75
2019-03-29T06:14:54.749Z,72.88
2019-03-29T06:17:25.572Z,72.87
2019-03-29T06:19:56.403Z,73.28
2019-03-29T06:22:27.249Z,72.71
2019-03-29T06:24:58.015Z,73.16
2019-03-29T06:27:29.199Z,72.61
2019-03-29T06:30:00.105Z,72.64
2019-03-29T06:32:31.070Z,72.87
2019-03-29T06:35:01.898Z,72.89
2019-03-29T06:37:34.756Z,72.35
2019-03-29T06:40:07.623Z,72.11
2019-03-29T06:42:38.450Z,72.66
2019-03-29T06:45:09.761Z,72.89
2019-03-29T06:47:40.843Z,73.27
2019-03-29T06:50:14.083Z,73.03
2019-03-29T06:52:44.091Z,72.42
2019-03-29T06:55:14.895Z,71.73
2019-03-29T06:57:45.891Z,71.71
2019-03-29T07:00:16.970Z,71.98
2019-03-29T07:02:48.124Z,72.21
2019-03-29T07:05:18.949Z,71.98
2019-03-29T07:07:50.103Z,71.94
2019-03-29T07:10:21.157Z,71.84
2019-03-29T07:12:52.004Z,72.18
2019-03-29T07:15:22.819Z,71.94
2019-03-29T07:17:53.862Z,71.83
2019-03-29T07:20:24.772Z,71.69
2019-03-29T07:22:55.839Z,71.28
2019-03-29T07:25:26.617Z,71.99
2019-03-29T07:27:57.330Z,71.08
2019-03-29T07:30:28.046Z,71.46
2019-03-29T07:32:58.883Z,71.66
2019-03-29T07:35:29.619Z,71.39
2019-03-29T07:38:00.814Z,70.98
2019-03-29T07:40:31.570Z,70.84
2019-03-29T07:43:02.583Z,71.04
2019-03-29T07:45:33.717Z,70.22
2019-03-29T07:48:04.452Z,71.00
2019-03-29T07:50:35.258Z,70.01
2019-03-29T07:53:06.501Z,71.01
2019-03-29T07:55:37.654Z,71.32
2019-03-29T07:58:08.578Z,71.54
2019-03-29T08:00:39.437Z,70.46
2019-03-29T08:03:10.181Z,70.39
2019-03-29T08:05:41.447Z,70.02
2019-03-29T08:08:23.301Z,70.02
2019-03-29T08:10:44.622Z,69.72
2019-03-29T08:13:16.248Z,69.12
2019-03-29T08:15:47.376Z,68.62
2019-03-29T08:18:18.320Z,68.52
2019-03-29T08:20:49.049Z,68.15
2019-03-29T08:23:22.128Z,67.84
2019-03-29T08:25:52.940Z,67.68
2019-03-29T08:28:23.734Z,68.05
2019-03-29T08:30:54.927Z,67.30
2019-03-29T08:33:25.697Z,67.17
2019-03-29T08:35:56.749Z,67.67
2019-03-29T08:38:27.545Z,67.31
2019-03-29T08:40:58.254Z,67.60
2019-03-29T08:43:29.615Z,67.32
2019-03-29T08:46:00.757Z,66.86
2019-03-29T08:48:32.113Z,67.45
2019-03-29T08:51:02.861Z,67.57
2019-03-29T08:53:33.735Z,67.21
2019-03-29T08:56:05.029Z,68.51
2019-03-29T08:58:35.899Z,68.18
2019-03-29T09:01:12.835Z,67.58
2019-03-29T09:03:44.164Z,70.14
2019-03-29T09:06:15.000Z,68.30
2019-03-29T09:08:46.334Z,66.86
2019-03-29T09:11:17.350Z,68.14
2019-03-29T09:13:48.076Z,67.42
2019-03-29T09:16:18.846Z,68.04
2019-03-29T09:18:53.646Z,69.45
2019-03-29T09:21:24.683Z,67.72
2019-03-29T09:23:55.738Z,66.18
2019-03-29T09:26:26.840Z,67.06
2019-03-29T09:28:57.951Z,66.25
2019-03-29T09:31:28.840Z,65.95
2019-03-29T09:34:00.322Z,67.11
2019-03-29T09:36:33.662Z,66.43
2019-03-29T09:39:06.737Z,66.19
2019-03-29T09:41:37.846Z,65.10
2019-03-29T09:44:09.119Z,69.03
2019-03-29T09:46:40.317Z,67.61
2019-03-29T09:49:11.573Z,67.05
2019-03-29T09:51:42.327Z,65.30
2019-03-29T09:54:13.775Z,64.77
2019-03-29T09:56:48.111Z,64.52
2019-03-29T09:59:17.664Z,64.44
2019-03-29T10:01:48.479Z,64.31
2019-03-29T10:04:19.403Z,64.81
2019-03-29T10:06:50.194Z,64.26
2019-03-29T10:09:21.143Z,64.79
2019-03-29T10:11:52.320Z,63.30
2019-03-29T10:14:23.521Z,64.55
2019-03-29T10:16:54.515Z,64.64
2019-03-29T10:19:25.369Z,63.38
2019-03-29T10:21:56.612Z,62.48
2019-03-29T10:24:27.701Z,61.64
2019-03-29T10:26:59.134Z,61.25
2019-03-29T10:29:30.093Z,61.29
2019-03-29T10:32:00.944Z,60.82
2019-03-29T10:34:32.267Z,60.68
2019-03-29T10:37:03.509Z,60.05
2019-03-29T10:39:35.776Z,59.29
2019-03-29T10:42:06.890Z,58.72
2019-03-29T10:44:37.721Z,58.60
2019-03-29T10:47:08.527Z,58.14
2019-03-29T10:49:39.279Z,57.91
2019-03-29T10:52:10.222Z,58.07
2019-03-29T10:54:41.070Z,57.31
2019-03-29T10:57:11.853Z,56.87
2019-03-29T10:59:42.750Z,56.02
2019-03-29T11:02:13.672Z,55.53
2019-03-29T11:04:44.492Z,55.27
2019-03-29T11:07:15.724Z,55.52
2019-03-29T11:09:46.821Z,55.18
2019-03-29T11:12:17.687Z,55.58
2019-03-29T11:14:48.564Z,54.66
2019-03-29T11:17:19.297Z,54.53
2019-03-29T11:19:50.505Z,55.24
2019-03-29T11:22:21.215Z,54.69
2019-03-29T11:24:52.097Z,55.52
2019-03-29T11:27:22.829Z,54.90
2019-03-29T11:29:53.693Z,57.15
2019-03-29T11:32:24.532Z,54.64
2019-03-29T11:34:55.562Z,53.82
2019-03-29T11:37:26.314Z,53.82
2019-03-29T11:39:57.434Z,54.68
2019-03-29T11:42:28.352Z,54.99
2019-03-29T11:44:59.249Z,54.37
2019-03-29T11:47:30.105Z,54.43
2019-03-29T11:50:00.970Z,53.71
2019-03-29T11:52:33.825Z,53.64
2019-03-29T11:55:04.480Z,53.25
2019-03-29T11:57:35.324Z,53.96
2019-03-29T12:00:07.151Z,53.87
2019-03-29T12:02:38.039Z,54.06
2019-03-29T12:05:09.140Z,54.19
2019-03-29T12:07:39.878Z,54.61
2019-03-29T12:10:10.978Z,54.54
2019-03-29T12:12:41.776Z,54.89
2019-03-29T12:15:13.706Z,55.83
2019-03-29T12:17:44.746Z,55.29
2019-03-29T12:20:15.713Z,56.57
2019-03-29T12:22:46.611Z,55.08
2019-03-29T12:25:17.579Z,53.59
2019-03-29T12:27:48.301Z,53.95
2019-03-29T12:30:31.365Z,53.60
2019-03-29T12:32:53.019Z,53.67
2019-03-29T12:35:24.097Z,53.64
2019-03-29T12:37:55.186Z,54.02
2019-03-29T12:40:26.078Z,53.06
2019-03-29T12:42:57.015Z,53.13
2019-03-29T12:45:28.074Z,54.54
2019-03-29T12:47:58.876Z,54.17
2019-03-29T12:50:30.710Z,52.99
2019-03-29T12:53:01.524Z,52.33
2019-03-29T12:55:32.600Z,52.22
2019-03-29T12:58:03.671Z,52.59
2019-03-29T13:00:34.784Z,52.89
2019-03-29T13:03:06.180Z,52.52
2019-03-29T13:05:37.007Z,52.59
2019-03-29T13:08:08.229Z,52.50
2019-03-29T13:10:42.272Z,51.94
2019-03-29T13:13:13.412Z,52.17
2019-03-29T13:15:44.442Z,52.74
2019-03-29T13:18:15.736Z,52.67
2019-03-29T13:20:46.729Z,52.33
2019-03-29T13:23:17.462Z,58.18
2019-03-29T13:25:48.628Z,56.22
2019-03-29T13:28:19.503Z,55.44
2019-03-29T13:30:50.593Z,56.16
2019-03-29T13:33:21.327Z,53.86
2019-03-29T13:35:52.967Z,53.06
2019-03-29T13:38:23.897Z,53.04
2019-03-29T13:40:54.688Z,54.22
2019-03-29T13:43:27.906Z,54.13
2019-03-29T13:45:59.042Z,53.79
2019-03-29T13:48:30.159Z,53.86
2019-03-29T13:51:00.928Z,54.28
2019-03-29T13:53:31.874Z,51.47
2019-03-29T13:56:03.060Z,51.60
2019-03-29T13:58:33.882Z,52.25
2019-03-29T14:01:05.061Z,51.49
2019-03-29T14:03:38.003Z,52.08
2019-03-29T14:06:09.846Z,51.64
2019-03-29T14:08:40.642Z,51.98
2019-03-29T14:11:11.431Z,51.97
2019-03-29T14:13:42.144Z,51.15
2019-03-29T14:16:12.953Z,51.47
2019-03-29T14:18:44.174Z,52.69
2019-03-29T14:21:14.983Z,53.14
2019-03-29T14:23:45.718Z,51.50
2019-03-29T14:26:16.453Z,51.25
2019-03-29T14:28:47.512Z,51.50
2019-03-29T14:31:18.379Z,51.67
2019-03-29T14:33:49.924Z,51.41
2019-03-29T14:36:20.797Z,51.70
2019-03-29T14:38:51.507Z,51.46
2019-03-29T14:41:22.432Z,51.17
2019-03-29T14:43:53.464Z,52.14
2019-03-29T14:46:24.184Z,51.71
2019-03-29T14:48:54.999Z,51.97
2019-03-29T14:51:26.270Z,51.40
2019-03-29T14:53:57.772Z,51.77
2019-03-29T14:56:28.519Z,54.97
2019-03-29T14:58:59.355Z,52.45
2019-03-29T15:01:31.180Z,52.00
2019-03-29T15:04:12.449Z,52.00
2019-03-29T15:06:43.405Z,52.25
2019-03-29T15:09:14.961Z,51.05
2019-03-29T15:11:45.785Z,51.14
2019-03-29T15:14:16.534Z,51.34
2019-03-29T15:16:47.986Z,50.94
2019-03-29T15:19:22.205Z,51.13
2019-03-29T15:21:55.774Z,51.16
2019-03-29T15:24:28.141Z,50.91
2019-03-29T15:26:59.461Z,52.30
2019-03-29T15:29:30.346Z,51.43
2019-03-29T15:32:02.776Z,52.29
2019-03-29T15:34:38.725Z,51.93
2019-03-29T15:37:11.968Z,53.25
2019-03-29T15:39:43.465Z,52.98
2019-03-29T15:42:15.221Z,52.47
2019-03-29T15:44:46.093Z,52.52
2019-03-29T15:47:17.402Z,51.88
2019-03-29T15:49:55.935Z,51.51
2019-03-29T15:52:22.416Z,53.37
2019-03-29T15:54:53.150Z,51.97
2019-03-29T15:57:25.015Z,51.50
2019-03-29T15:59:57.321Z,51.16
2019-03-29T16:02:29.558Z,51.12
2019-03-29T16:05:00.715Z,52.11
2019-03-29T16:07:34.966Z,51.60
2019-03-29T16:10:06.553Z,52.12
2019-03-29T16:12:37.282Z,51.82
2019-03-29T16:15:08.858Z,52.17
2019-03-29T16:17:39.720Z,52.28
2019-03-29T16:20:10.679Z,54.58
2019-03-29T16:22:42.539Z,53.56
2019-03-29T16:25:13.570Z,52.01
2019-03-29T16:27:44.425Z,53.03
2019-03-29T16:30:15.910Z,52.67
2019-03-29T16:32:46.607Z,52.12
2019-03-29T16:35:17.350Z,53.59
2019-03-29T16:37:57.050Z,53.11
2019-03-29T16:40:20.575Z,53.64
2019-03-29T16:42:51.430Z,53.82
2019-03-29T16:45:22.231Z,56.46
2019-03-29T16:47:53.831Z,54.29
2019-03-29T16:50:24.635Z,53.21
2019-03-29T16:52:55.343Z,53.57
2019-03-29T16:55:29.797Z,53.96
2019-03-29T16:58:00.613Z,53.25
2019-03-29T17:00:31.374Z,53.43
2019-03-29T17:03:02.568Z,53.45
2019-03-29T17:05:33.370Z,52.88
2019-03-29T17:08:05.409Z,53.06
2019-03-29T17:10:36.798Z,54.93
2019-03-29T17:13:07.578Z,53.94
2019-03-29T17:15:38.333Z,53.45
2019-03-29T17:18:09.031Z,53.69
2019-03-29T17:20:39.978Z,54.32
2019-03-29T17:23:11.001Z,54.25
2019-03-29T17:25:41.900Z,54.13
2019-03-29T17:28:16.909Z,53.59
2019-03-29T17:30:56.875Z,53.53
2019-03-29T17:33:27.635Z,54.04
2019-03-29T17:35:58.693Z,54.01
2019-03-29T17:38:29.946Z,53.98
2019-03-29T17:41:00.754Z,53.69
2019-03-29T17:43:31.612Z,54.47
2019-03-29T17:46:15.599Z,55.81
2019-03-29T17:48:35.565Z,57.12
2019-03-29T17:51:06.907Z,54.91
2019-03-29T17:53:37.607Z,54.38
2019-03-29T17:56:09.239Z,54.43
2019-03-29T17:58:40.048Z,54.63
2019-03-29T18:01:10.763Z,54.36
2019-03-29T18:03:41.581Z,56.22
2019-03-29T18:06:13.264Z,57.08
2019-03-29T18:08:43.973Z,55.05
2019-03-29T18:11:14.772Z,54.72
2019-03-29T18:13:45.768Z,55.18
2019-03-29T18:16:30.002Z,54.88
2019-03-29T18:18:49.468Z,55.10
2019-03-29T18:21:20.389Z,59.36
2019-03-29T18:23:51.634Z,56.48
2019-03-29T18:26:22.504Z,55.91
2019-03-29T18:28:53.481Z,55.96
2019-03-29T18:31:25.318Z,56.21
2019-03-29T18:33:56.553Z,56.39
2019-03-29T18:36:28.071Z,56.07
2019-03-29T18:38:58.881Z,55.95
2019-03-29T18:41:30.827Z,58.35
2019-03-29T18:44:01.663Z,61.27
2019-03-29T18:46:43.995Z,59.06
2019-03-29T18:49:04.996Z,59.52
2019-03-29T18:51:35.799Z,57.78
2019-03-29T18:54:08.192Z,57.47
2019-03-29T18:56:38.896Z,58.11
2019-03-29T18:59:10.079Z,58.93
2019-03-29T19:01:40.780Z,58.23
2019-03-29T19:04:11.509Z,57.74
2019-03-29T19:06:43.045Z,57.93
2019-03-29T19:09:13.869Z,58.00
2019-03-29T19:11:44.637Z,58.10
2019-03-29T19:14:15.557Z,58.09
2019-03-29T19:16:58.276Z,58.56
2019-03-29T19:19:18.738Z,59.10
2019-03-29T19:21:49.449Z,59.01
2019-03-29T19:24:20.190Z,59.38
2019-03-29T19:26:50.884Z,60.88
2019-03-29T19:29:22.054Z,59.77
2019-03-29T19:31:56.025Z,59.63
2019-03-29T19:34:25.448Z,59.45
2019-03-29T19:36:56.374Z,60.08
2019-03-29T19:39:27.111Z,59.66
2019-03-29T19:41:58.747Z,59.68
2019-03-29T19:44:29.808Z,60.41
2019-03-29T19:47:12.720Z,60.36
2019-03-29T19:49:33.398Z,60.68
2019-03-29T19:52:04.201Z,60.59
2019-03-29T19:54:35.262Z,60.19
2019-03-29T19:57:06.257Z,60.29
2019-03-29T19:59:37.075Z,60.11
2019-03-29T20:02:08.220Z,60.98
2019-03-29T20:04:39.008Z,61.22
2019-03-29T20:07:10.247Z,60.81
2019-03-29T20:09:42.189Z,61.29
2019-03-29T20:12:13.206Z,61.80
2019-03-29T20:14:43.963Z,61.49
2019-03-29T20:17:26.968Z,61.03
2019-03-29T20:19:47.345Z,61.13
2019-03-29T20:22:18.228Z,61.43
2019-03-29T20:24:48.969Z,62.08
2019-03-29T20:27:19.842Z,62.32
2019-03-29T20:29:50.578Z,62.51
2019-03-29T20:32:22.288Z,62.78
2019-03-29T20:34:53.438Z,61.44
2019-03-29T20:37:24.145Z,62.15
2019-03-29T20:39:55.253Z,62.85
2019-03-29T20:42:25.943Z,61.88
2019-03-29T20:44:58.194Z,62.88
2019-03-29T20:47:41.441Z,63.34
2019-03-29T20:50:02.311Z,62.78
2019-03-29T20:52:33.363Z,63.18
2019-03-29T20:55:10.059Z,63.16
2019-03-29T20:57:40.932Z,63.12
2019-03-29T21:00:14.715Z,63.75
2019-03-29T21:02:46.310Z,65.89
2019-03-29T21:05:17.223Z,62.51
2019-03-29T21:07:49.208Z,62.62
2019-03-29T21:10:20.270Z,63.14
2019-03-29T21:12:51.490Z,62.93
2019-03-29T21:15:22.828Z,62.89
2019-03-29T21:17:57.123Z,62.97
2019-03-29T21:20:28.452Z,64.95
2019-03-29T21:23:00.157Z,63.78
2019-03-29T21:25:30.919Z,63.22
2019-03-29T21:28:01.765Z,63.26
2019-03-29T21:30:33.803Z,63.34
2019-03-29T21:33:05.083Z,63.17
2019-03-29T21:35:36.017Z,63.54
2019-03-29T21:38:09.514Z,63.02
2019-03-29T21:40:41.931Z,63.18
2019-03-29T21:43:13.987Z,63.55
2019-03-29T21:45:50.437Z,64.00
2019-03-29T21:48:29.344Z,63.77
2019-03-29T21:50:54.122Z,63.66
2019-03-29T21:53:25.343Z,63.79
2019-03-29T21:55:56.081Z,63.93
2019-03-29T21:58:27.179Z,64.04
2019-03-29T22:00:58.063Z,63.47
2019-03-29T22:03:28.763Z,64.25
2019-03-29T22:05:59.483Z,64.00
2019-03-29T22:08:31.563Z,63.72
2019-03-29T22:11:02.792Z,63.64
2019-03-29T22:13:33.596Z,63.75
2019-03-29T22:16:05.074Z,64.87
2019-03-29T22:18:38.205Z,65.68
2019-03-29T22:21:09.162Z,64.22
2019-03-29T22:23:39.972Z,63.20
2019-03-29T22:26:10.774Z,63.42
2019-03-29T22:28:41.697Z,63.32
2019-03-29T22:31:12.418Z,63.44
2019-03-29T22:33:43.154Z,64.80
2019-03-29T22:36:14.176Z,66.62
2019-03-29T22:38:45.319Z,65.77
2019-03-29T22:41:16.461Z,64.46
2019-03-29T22:43:48.086Z,64.79
2019-03-29T22:46:18.978Z,64.90
2019-03-29T22:48:52.933Z,64.00
2019-03-29T22:51:22.225Z,64.10
2019-03-29T22:53:53.715Z,64.52
2019-03-29T22:56:24.467Z,66.15
2019-03-29T22:58:55.802Z,65.02
2019-03-29T23:01:27.334Z,65.18
2019-03-29T23:03:58.506Z,65.04
2019-03-29T23:06:29.205Z,64.53
2019-03-29T23:09:00.177Z,65.43
2019-03-29T23:11:31.162Z,64.23
2019-03-29T23:14:02.122Z,65.53
2019-03-29T23:16:32.843Z,65.00
2019-03-29T23:19:06.842Z,65.14
2019-03-29T23:21:36.388Z,64.96
2019-03-29T23:24:07.152Z,64.69
2019-03-29T23:26:38.201Z,64.83
2019-03-29T23:29:09.000Z,65.02
2019-03-29T23:31:39.728Z,65.50
2019-03-29T23:34:10.516Z,65.45
2019-03-29T23:36:41.316Z,65.59
2019-03-29T23:39:12.044Z,66.07
2019-03-29T23:41:42.830Z,65.41
2019-03-29T23:44:13.606Z,65.50
2019-03-29T23:46:44.307Z,65.20
2019-03-29T23:49:21.350Z,65.14
2019-03-29T23:51:48.408Z,65.88
2019-03-29T23:54:20.052Z,65.68
2019-03-29T23:56:51.337Z,65.71
2019-03-29T23:59:22.046Z,65.73
